sensor_id;sensor_type;location;lat;lon;timestamp;P1;durP1;ratioP1;P2;durP2;ratioP2
38025;SDS011;23836;48.430;9.888;2022-08-03T00:03:23;6.23;;;3.03;;
38025;SDS011;23836;48.430;9.888;2022-08-03T00:08:13;3.70;;;2.47;;
38025;SDS011;23836;48.430;9.888;2022-08-03T00:13:04;4.47;;;3.25;;
38025;SDS011;23836;48.430;9.888;2022-08-03T00:17:54;4.35;;;2.70;;
38025;SDS011;23836;48.430;9.888;2022-08-03T00:22:45;4.20;;;3.10;;
38025;SDS011;23836;48.430;9.888;2022-08-03T00:27:35;7.68;;;3.00;;
38025;SDS011;23836;48.430;9.888;2022-08-03T00:32:26;4.15;;;2.90;;
38025;SDS011;23836;48.430;9.888;2022-08-03T00:37:16;3.42;;;2.78;;
38025;SDS011;23836;48.430;9.888;2022-08-03T00:42:07;5.07;;;2.80;;
38025;SDS011;23836;48.430;9.888;2022-08-03T00:46:57;4.38;;;3.08;;
38025;SDS011;23836;48.430;9.888;2022-08-03T00:51:47;5.73;;;3.03;;
38025;SDS011;23836;48.430;9.888;2022-08-03T00:56:38;9.13;;;2.75;;
38025;SDS011;23836;48.430;9.888;2022-08-03T01:01:29;3.97;;;2.90;;
38025;SDS011;23836;48.430;9.888;2022-08-03T01:06:39;3.10;;;2.42;;
38025;SDS011;23836;48.430;9.888;2022-08-03T01:11:53;7.07;;;3.30;;
38025;SDS011;23836;48.430;9.888;2022-08-03T01:16:59;6.03;;;3.63;;
38025;SDS011;23836;48.430;9.888;2022-08-03T01:27:20;9.77;;;3.63;;
38025;SDS011;23836;48.430;9.888;2022-08-03T01:32:21;5.20;;;3.30;;
38025;SDS011;23836;48.430;9.888;2022-08-03T01:37:36;4.78;;;2.90;;
38025;SDS011;23836;48.430;9.888;2022-08-03T01:42:29;3.85;;;2.88;;
38025;SDS011;23836;48.430;9.888;2022-08-03T01:47:21;4.65;;;3.13;;
38025;SDS011;23836;48.430;9.888;2022-08-03T01:52:16;3.85;;;2.83;;
38025;SDS011;23836;48.430;9.888;2022-08-03T01:57:08;3.80;;;2.95;;
38025;SDS011;23836;48.430;9.888;2022-08-03T02:01:59;3.50;;;2.90;;
38025;SDS011;23836;48.430;9.888;2022-08-03T02:06:52;5.20;;;3.22;;
38025;SDS011;23836;48.430;9.888;2022-08-03T02:11:43;3.78;;;2.67;;
38025;SDS011;23836;48.430;9.888;2022-08-03T02:16:35;4.65;;;3.00;;
38025;SDS011;23836;48.430;9.888;2022-08-03T02:21:27;4.22;;;3.15;;
38025;SDS011;23836;48.430;9.888;2022-08-03T02:26:19;3.85;;;2.97;;
38025;SDS011;23836;48.430;9.888;2022-08-03T02:31:13;4.55;;;2.97;;
38025;SDS011;23836;48.430;9.888;2022-08-03T02:36:05;4.43;;;3.20;;
38025;SDS011;23836;48.430;9.888;2022-08-03T02:40:57;4.40;;;2.80;;
38025;SDS011;23836;48.430;9.888;2022-08-03T02:45:50;3.63;;;3.03;;
38025;SDS011;23836;48.430;9.888;2022-08-03T02:50:41;5.72;;;2.75;;
38025;SDS011;23836;48.430;9.888;2022-08-03T02:55:34;6.68;;;3.58;;
38025;SDS011;23836;48.430;9.888;2022-08-03T03:00:25;9.40;;;2.83;;
38025;SDS011;23836;48.430;9.888;2022-08-03T03:05:16;3.25;;;2.35;;
38025;SDS011;23836;48.430;9.888;2022-08-03T03:10:07;3.95;;;2.70;;
38025;SDS011;23836;48.430;9.888;2022-08-03T03:14:58;7.15;;;3.03;;
38025;SDS011;23836;48.430;9.888;2022-08-03T03:19:48;4.07;;;3.20;;
38025;SDS011;23836;48.430;9.888;2022-08-03T03:24:41;7.68;;;3.03;;
38025;SDS011;23836;48.430;9.888;2022-08-03T03:29:32;3.97;;;3.08;;
38025;SDS011;23836;48.430;9.888;2022-08-03T03:34:23;4.38;;;2.90;;
38025;SDS011;23836;48.430;9.888;2022-08-03T03:39:14;6.88;;;3.53;;
38025;SDS011;23836;48.430;9.888;2022-08-03T03:44:04;7.28;;;3.25;;
38025;SDS011;23836;48.430;9.888;2022-08-03T03:48:55;5.80;;;3.40;;
38025;SDS011;23836;48.430;9.888;2022-08-03T03:53:55;4.13;;;3.28;;
38025;SDS011;23836;48.430;9.888;2022-08-03T03:58:47;6.10;;;3.10;;
38025;SDS011;23836;48.430;9.888;2022-08-03T04:03:37;4.15;;;3.10;;
38025;SDS011;23836;48.430;9.888;2022-08-03T04:08:28;11.85;;;3.50;;
38025;SDS011;23836;48.430;9.888;2022-08-03T04:13:46;4.88;;;2.70;;
38025;SDS011;23836;48.430;9.888;2022-08-03T04:18:45;5.97;;;3.00;;
38025;SDS011;23836;48.430;9.888;2022-08-03T04:23:41;4.55;;;3.05;;
38025;SDS011;23836;48.430;9.888;2022-08-03T04:28:35;3.35;;;2.88;;
38025;SDS011;23836;48.430;9.888;2022-08-03T04:33:28;7.72;;;3.25;;
38025;SDS011;23836;48.430;9.888;2022-08-03T04:38:24;4.53;;;3.03;;
38025;SDS011;23836;48.430;9.888;2022-08-03T04:43:18;8.40;;;3.00;;
38025;SDS011;23836;48.430;9.888;2022-08-03T04:48:11;4.70;;;2.90;;
38025;SDS011;23836;48.430;9.888;2022-08-03T04:53:04;4.18;;;2.70;;
38025;SDS011;23836;48.430;9.888;2022-08-03T04:57:55;5.22;;;2.72;;
38025;SDS011;23836;48.430;9.888;2022-08-03T05:02:46;4.15;;;2.92;;
38025;SDS011;23836;48.430;9.888;2022-08-03T05:07:36;15.63;;;2.78;;
38025;SDS011;23836;48.430;9.888;2022-08-03T05:12:27;2.65;;;2.05;;
38025;SDS011;23836;48.430;9.888;2022-08-03T05:17:17;5.43;;;2.80;;
38025;SDS011;23836;48.430;9.888;2022-08-03T05:22:08;5.05;;;2.80;;
38025;SDS011;23836;48.430;9.888;2022-08-03T05:26:58;5.27;;;3.00;;
38025;SDS011;23836;48.430;9.888;2022-08-03T05:31:49;4.13;;;2.60;;
38025;SDS011;23836;48.430;9.888;2022-08-03T05:36:39;5.60;;;2.20;;
38025;SDS011;23836;48.430;9.888;2022-08-03T05:41:30;3.42;;;2.10;;
38025;SDS011;23836;48.430;9.888;2022-08-03T05:46:23;3.90;;;2.83;;
38025;SDS011;23836;48.430;9.888;2022-08-03T05:51:14;5.35;;;2.30;;
38025;SDS011;23836;48.430;9.888;2022-08-03T05:56:04;4.38;;;2.53;;
38025;SDS011;23836;48.430;9.888;2022-08-03T06:00:54;6.32;;;2.42;;
38025;SDS011;23836;48.430;9.888;2022-08-03T06:05:45;3.43;;;2.10;;
38025;SDS011;23836;48.430;9.888;2022-08-03T06:10:36;9.43;;;1.98;;
38025;SDS011;23836;48.430;9.888;2022-08-03T06:15:27;2.33;;;1.77;;
38025;SDS011;23836;48.430;9.888;2022-08-03T06:20:18;4.60;;;2.00;;
38025;SDS011;23836;48.430;9.888;2022-08-03T06:25:10;5.30;;;2.20;;
38025;SDS011;23836;48.430;9.888;2022-08-03T06:30:01;5.90;;;1.63;;
38025;SDS011;23836;48.430;9.888;2022-08-03T06:34:51;1.98;;;1.30;;
38025;SDS011;23836;48.430;9.888;2022-08-03T06:39:41;3.37;;;1.60;;
38025;SDS011;23836;48.430;9.888;2022-08-03T06:44:32;5.50;;;2.13;;
38025;SDS011;23836;48.430;9.888;2022-08-03T06:49:22;6.70;;;2.50;;
38025;SDS011;23836;48.430;9.888;2022-08-03T06:54:13;6.18;;;2.33;;
38025;SDS011;23836;48.430;9.888;2022-08-03T06:59:03;5.27;;;2.30;;
38025;SDS011;23836;48.430;9.888;2022-08-03T07:03:53;3.72;;;1.48;;
38025;SDS011;23836;48.430;9.888;2022-08-03T07:08:45;13.00;;;3.10;;
38025;SDS011;23836;48.430;9.888;2022-08-03T07:13:35;6.30;;;2.00;;
38025;SDS011;23836;48.430;9.888;2022-08-03T07:18:25;2.13;;;1.37;;
38025;SDS011;23836;48.430;9.888;2022-08-03T07:23:16;6.60;;;1.20;;
38025;SDS011;23836;48.430;9.888;2022-08-03T07:28:06;2.90;;;1.27;;
38025;SDS011;23836;48.430;9.888;2022-08-03T07:32:57;3.38;;;1.63;;
38025;SDS011;23836;48.430;9.888;2022-08-03T07:37:47;10.53;;;1.37;;
38025;SDS011;23836;48.430;9.888;2022-08-03T07:42:38;4.70;;;1.20;;
38025;SDS011;23836;48.430;9.888;2022-08-03T07:47:28;3.50;;;1.40;;
38025;SDS011;23836;48.430;9.888;2022-08-03T07:52:19;6.68;;;2.00;;
38025;SDS011;23836;48.430;9.888;2022-08-03T07:57:28;3.17;;;1.50;;
38025;SDS011;23836;48.430;9.888;2022-08-03T08:02:18;3.17;;;1.17;;
38025;SDS011;23836;48.430;9.888;2022-08-03T08:07:09;2.08;;;1.25;;
38025;SDS011;23836;48.430;9.888;2022-08-03T08:12:00;4.20;;;1.60;;
38025;SDS011;23836;48.430;9.888;2022-08-03T08:16:50;5.20;;;1.23;;
38025;SDS011;23836;48.430;9.888;2022-08-03T08:21:41;3.65;;;1.30;;
38025;SDS011;23836;48.430;9.888;2022-08-03T08:26:32;2.58;;;0.80;;
38025;SDS011;23836;48.430;9.888;2022-08-03T08:31:23;1.92;;;1.00;;
38025;SDS011;23836;48.430;9.888;2022-08-03T08:36:13;2.40;;;0.67;;
38025;SDS011;23836;48.430;9.888;2022-08-03T08:41:03;3.17;;;1.00;;
38025;SDS011;23836;48.430;9.888;2022-08-03T08:45:54;1.23;;;0.80;;
38025;SDS011;23836;48.430;9.888;2022-08-03T08:50:48;1.05;;;0.82;;
38025;SDS011;23836;48.430;9.888;2022-08-03T08:55:42;1.45;;;0.77;;
38025;SDS011;23836;48.430;9.888;2022-08-03T09:00:36;1.20;;;0.68;;
38025;SDS011;23836;48.430;9.888;2022-08-03T09:05:26;0.40;;;0.40;;
38025;SDS011;23836;48.430;9.888;2022-08-03T09:10:17;1.48;;;0.95;;
38025;SDS011;23836;48.430;9.888;2022-08-03T09:15:21;1.30;;;0.93;;
38025;SDS011;23836;48.430;9.888;2022-08-03T09:20:12;1.52;;;0.70;;
38025;SDS011;23836;48.430;9.888;2022-08-03T09:25:04;3.55;;;1.58;;
38025;SDS011;23836;48.430;9.888;2022-08-03T09:29:56;1.30;;;0.80;;
38025;SDS011;23836;48.430;9.888;2022-08-03T09:34:47;3.47;;;0.80;;
38025;SDS011;23836;48.430;9.888;2022-08-03T09:39:39;1.67;;;0.88;;
38025;SDS011;23836;48.430;9.888;2022-08-03T09:44:39;6.57;;;0.90;;
38025;SDS011;23836;48.430;9.888;2022-08-03T09:49:31;0.70;;;0.60;;
38025;SDS011;23836;48.430;9.888;2022-08-03T09:54:29;1.35;;;0.60;;
38025;SDS011;23836;48.430;9.888;2022-08-03T09:59:27;2.50;;;1.02;;
38025;SDS011;23836;48.430;9.888;2022-08-03T10:04:19;7.15;;;0.85;;
38025;SDS011;23836;48.430;9.888;2022-08-03T10:09:12;4.50;;;0.73;;
38025;SDS011;23836;48.430;9.888;2022-08-03T10:14:04;0.85;;;0.63;;
38025;SDS011;23836;48.430;9.888;2022-08-03T10:18:56;2.55;;;0.80;;
38025;SDS011;23836;48.430;9.888;2022-08-03T10:23:46;1.55;;;0.77;;
38025;SDS011;23836;48.430;9.888;2022-08-03T10:28:39;1.67;;;0.70;;
38025;SDS011;23836;48.430;9.888;2022-08-03T10:33:36;1.95;;;0.88;;
38025;SDS011;23836;48.430;9.888;2022-08-03T10:38:37;0.90;;;0.70;;
38025;SDS011;23836;48.430;9.888;2022-08-03T10:43:35;1.15;;;0.77;;
38025;SDS011;23836;48.430;9.888;2022-08-03T10:48:41;5.68;;;0.88;;
38025;SDS011;23836;48.430;9.888;2022-08-03T10:53:33;1.10;;;0.80;;
38025;SDS011;23836;48.430;9.888;2022-08-03T11:03:28;3.58;;;0.90;;
38025;SDS011;23836;48.430;9.888;2022-08-03T11:08:29;1.20;;;0.67;;
38025;SDS011;23836;48.430;9.888;2022-08-03T11:13:24;1.40;;;0.90;;
38025;SDS011;23836;48.430;9.888;2022-08-03T11:18:17;3.00;;;0.90;;
38025;SDS011;23836;48.430;9.888;2022-08-03T11:23:07;1.00;;;0.85;;
38025;SDS011;23836;48.430;9.888;2022-08-03T11:33:29;1.52;;;0.90;;
38025;SDS011;23836;48.430;9.888;2022-08-03T11:38:20;3.45;;;1.17;;
38025;SDS011;23836;48.430;9.888;2022-08-03T11:48:19;1.88;;;0.80;;
38025;SDS011;23836;48.430;9.888;2022-08-03T11:53:13;1.88;;;0.75;;
38025;SDS011;23836;48.430;9.888;2022-08-03T11:58:05;0.60;;;0.60;;
38025;SDS011;23836;48.430;9.888;2022-08-03T12:02:57;1.55;;;0.70;;
38025;SDS011;23836;48.430;9.888;2022-08-03T12:07:51;5.22;;;0.80;;
38025;SDS011;23836;48.430;9.888;2022-08-03T12:12:42;1.15;;;0.80;;
38025;SDS011;23836;48.430;9.888;2022-08-03T12:17:38;0.95;;;0.52;;
38025;SDS011;23836;48.430;9.888;2022-08-03T12:22:33;1.15;;;0.50;;
38025;SDS011;23836;48.430;9.888;2022-08-03T12:27:26;2.45;;;0.65;;
38025;SDS011;23836;48.430;9.888;2022-08-03T12:32:19;0.52;;;0.50;;
38025;SDS011;23836;48.430;9.888;2022-08-03T12:37:10;7.10;;;0.90;;
38025;SDS011;23836;48.430;9.888;2022-08-03T12:42:00;1.10;;;0.70;;
38025;SDS011;23836;48.430;9.888;2022-08-03T12:46:55;1.10;;;0.90;;
38025;SDS011;23836;48.430;9.888;2022-08-03T13:01:55;2.92;;;1.02;;
38025;SDS011;23836;48.430;9.888;2022-08-03T13:06:55;1.70;;;1.08;;
38025;SDS011;23836;48.430;9.888;2022-08-03T13:11:46;2.20;;;1.10;;
38025;SDS011;23836;48.430;9.888;2022-08-03T13:16:53;1.55;;;0.85;;
38025;SDS011;23836;48.430;9.888;2022-08-03T13:21:43;1.30;;;0.97;;
38025;SDS011;23836;48.430;9.888;2022-08-03T13:26:34;1.30;;;0.70;;
38025;SDS011;23836;48.430;9.888;2022-08-03T13:31:24;3.83;;;1.00;;
38025;SDS011;23836;48.430;9.888;2022-08-03T13:36:14;0.87;;;0.70;;
38025;SDS011;23836;48.430;9.888;2022-08-03T13:41:06;0.95;;;0.68;;
38025;SDS011;23836;48.430;9.888;2022-08-03T13:45:56;4.93;;;0.83;;
38025;SDS011;23836;48.430;9.888;2022-08-03T13:50:47;1.77;;;1.10;;
38025;SDS011;23836;48.430;9.888;2022-08-03T13:55:37;1.00;;;0.80;;
38025;SDS011;23836;48.430;9.888;2022-08-03T14:00:27;5.30;;;1.10;;
38025;SDS011;23836;48.430;9.888;2022-08-03T14:05:18;3.13;;;1.00;;
38025;SDS011;23836;48.430;9.888;2022-08-03T14:10:08;3.33;;;0.95;;
38025;SDS011;23836;48.430;9.888;2022-08-03T14:14:59;1.40;;;0.90;;
38025;SDS011;23836;48.430;9.888;2022-08-03T14:19:49;1.83;;;0.80;;
38025;SDS011;23836;48.430;9.888;2022-08-03T14:24:39;1.27;;;0.97;;
38025;SDS011;23836;48.430;9.888;2022-08-03T14:29:30;3.47;;;1.00;;
38025;SDS011;23836;48.430;9.888;2022-08-03T14:34:20;3.60;;;0.83;;
38025;SDS011;23836;48.430;9.888;2022-08-03T14:39:10;2.30;;;1.07;;
38025;SDS011;23836;48.430;9.888;2022-08-03T14:44:01;1.45;;;1.00;;
38025;SDS011;23836;48.430;9.888;2022-08-03T14:48:51;1.10;;;0.63;;
38025;SDS011;23836;48.430;9.888;2022-08-03T14:53:41;1.50;;;0.90;;
38025;SDS011;23836;48.430;9.888;2022-08-03T14:58:32;1.92;;;1.27;;
38025;SDS011;23836;48.430;9.888;2022-08-03T15:03:22;9.50;;;0.83;;
38025;SDS011;23836;48.430;9.888;2022-08-03T15:08:14;1.23;;;0.70;;
38025;SDS011;23836;48.430;9.888;2022-08-03T15:13:04;1.33;;;1.13;;
38025;SDS011;23836;48.430;9.888;2022-08-03T15:17:54;1.93;;;0.70;;
38025;SDS011;23836;48.430;9.888;2022-08-03T15:22:45;3.70;;;0.80;;
38025;SDS011;23836;48.430;9.888;2022-08-03T15:27:35;2.73;;;1.10;;
38025;SDS011;23836;48.430;9.888;2022-08-03T15:32:26;1.33;;;0.90;;
38025;SDS011;23836;48.430;9.888;2022-08-03T15:37:17;1.30;;;0.80;;
38025;SDS011;23836;48.430;9.888;2022-08-03T15:42:08;1.30;;;0.85;;
38025;SDS011;23836;48.430;9.888;2022-08-03T15:46:58;1.90;;;1.30;;
38025;SDS011;23836;48.430;9.888;2022-08-03T15:51:49;4.03;;;1.13;;
38025;SDS011;23836;48.430;9.888;2022-08-03T15:56:39;3.23;;;1.00;;
38025;SDS011;23836;48.430;9.888;2022-08-03T16:01:34;1.13;;;1.00;;
38025;SDS011;23836;48.430;9.888;2022-08-03T16:06:24;1.75;;;0.77;;
38025;SDS011;23836;48.430;9.888;2022-08-03T16:11:14;1.37;;;0.73;;
38025;SDS011;23836;48.430;9.888;2022-08-03T16:16:05;2.05;;;0.73;;
38025;SDS011;23836;48.430;9.888;2022-08-03T16:20:56;1.47;;;0.73;;
38025;SDS011;23836;48.430;9.888;2022-08-03T16:25:47;2.17;;;0.80;;
38025;SDS011;23836;48.430;9.888;2022-08-03T16:30:37;4.20;;;0.90;;
38025;SDS011;23836;48.430;9.888;2022-08-03T16:35:28;1.73;;;1.10;;
38025;SDS011;23836;48.430;9.888;2022-08-03T16:40:19;1.95;;;0.85;;
38025;SDS011;23836;48.430;9.888;2022-08-03T16:45:09;2.65;;;0.80;;
38025;SDS011;23836;48.430;9.888;2022-08-03T16:50:00;3.95;;;0.90;;
38025;SDS011;23836;48.430;9.888;2022-08-03T16:54:50;4.45;;;0.85;;
38025;SDS011;23836;48.430;9.888;2022-08-03T16:59:42;1.42;;;0.85;;
38025;SDS011;23836;48.430;9.888;2022-08-03T17:04:32;1.15;;;0.88;;
38025;SDS011;23836;48.430;9.888;2022-08-03T17:09:23;1.40;;;0.80;;
38025;SDS011;23836;48.430;9.888;2022-08-03T17:14:14;5.10;;;0.90;;
38025;SDS011;23836;48.430;9.888;2022-08-03T17:19:06;3.10;;;1.30;;
38025;SDS011;23836;48.430;9.888;2022-08-03T17:24:00;3.15;;;0.77;;
38025;SDS011;23836;48.430;9.888;2022-08-03T17:28:58;4.00;;;0.95;;
38025;SDS011;23836;48.430;9.888;2022-08-03T17:33:54;3.35;;;0.98;;
38025;SDS011;23836;48.430;9.888;2022-08-03T17:38:45;2.85;;;1.23;;
38025;SDS011;23836;48.430;9.888;2022-08-03T17:43:36;5.13;;;1.83;;
38025;SDS011;23836;48.430;9.888;2022-08-03T17:48:30;2.80;;;1.00;;
38025;SDS011;23836;48.430;9.888;2022-08-03T17:53:23;2.42;;;0.80;;
38025;SDS011;23836;48.430;9.888;2022-08-03T17:58:26;0.90;;;0.68;;
38025;SDS011;23836;48.430;9.888;2022-08-03T18:08:34;1.65;;;0.95;;
38025;SDS011;23836;48.430;9.888;2022-08-03T18:13:28;1.05;;;0.70;;
38025;SDS011;23836;48.430;9.888;2022-08-03T18:18:31;1.65;;;0.90;;
38025;SDS011;23836;48.430;9.888;2022-08-03T18:23:24;1.38;;;0.80;;
38025;SDS011;23836;48.430;9.888;2022-08-03T18:28:18;2.20;;;1.00;;
38025;SDS011;23836;48.430;9.888;2022-08-03T18:33:09;1.75;;;0.70;;
38025;SDS011;23836;48.430;9.888;2022-08-03T18:38:01;1.30;;;0.95;;
38025;SDS011;23836;48.430;9.888;2022-08-03T18:42:52;1.23;;;0.90;;
38025;SDS011;23836;48.430;9.888;2022-08-03T18:57:54;2.67;;;1.05;;
38025;SDS011;23836;48.430;9.888;2022-08-03T19:03:00;2.83;;;0.88;;
38025;SDS011;23836;48.430;9.888;2022-08-03T19:07:58;2.03;;;0.90;;
38025;SDS011;23836;48.430;9.888;2022-08-03T19:13:08;1.73;;;1.10;;
38025;SDS011;23836;48.430;9.888;2022-08-03T19:18:08;3.72;;;1.10;;
38025;SDS011;23836;48.430;9.888;2022-08-03T19:22:59;3.00;;;1.00;;
38025;SDS011;23836;48.430;9.888;2022-08-03T19:27:50;1.77;;;0.80;;
38025;SDS011;23836;48.430;9.888;2022-08-03T19:32:41;1.63;;;1.25;;
38025;SDS011;23836;48.430;9.888;2022-08-03T19:37:32;1.27;;;0.98;;
38025;SDS011;23836;48.430;9.888;2022-08-03T19:42:28;1.27;;;0.85;;
38025;SDS011;23836;48.430;9.888;2022-08-03T19:47:27;3.85;;;0.98;;
38025;SDS011;23836;48.430;9.888;2022-08-03T19:52:25;5.50;;;1.02;;
38025;SDS011;23836;48.430;9.888;2022-08-03T19:57:17;3.50;;;1.02;;
38025;SDS011;23836;48.430;9.888;2022-08-03T20:02:11;1.30;;;0.98;;
38025;SDS011;23836;48.430;9.888;2022-08-03T20:07:02;5.43;;;1.63;;
38025;SDS011;23836;48.430;9.888;2022-08-03T20:11:53;3.20;;;1.15;;
38025;SDS011;23836;48.430;9.888;2022-08-03T20:16:45;10.98;;;1.27;;
38025;SDS011;23836;48.430;9.888;2022-08-03T20:21:36;2.58;;;1.27;;
38025;SDS011;23836;48.430;9.888;2022-08-03T20:26:27;2.17;;;1.02;;
38025;SDS011;23836;48.430;9.888;2022-08-03T20:31:19;2.28;;;1.20;;
38025;SDS011;23836;48.430;9.888;2022-08-03T20:36:10;2.25;;;1.00;;
38025;SDS011;23836;48.430;9.888;2022-08-03T20:41:00;2.75;;;1.45;;
38025;SDS011;23836;48.430;9.888;2022-08-03T20:45:52;4.90;;;1.65;;
38025;SDS011;23836;48.430;9.888;2022-08-03T20:50:43;4.30;;;1.33;;
38025;SDS011;23836;48.430;9.888;2022-08-03T20:55:33;3.03;;;1.45;;
38025;SDS011;23836;48.430;9.888;2022-08-03T21:00:24;16.42;;;1.75;;
38025;SDS011;23836;48.430;9.888;2022-08-03T21:05:15;7.88;;;1.70;;
38025;SDS011;23836;48.430;9.888;2022-08-03T21:10:05;5.47;;;1.63;;
38025;SDS011;23836;48.430;9.888;2022-08-03T21:15:03;6.22;;;1.73;;
38025;SDS011;23836;48.430;9.888;2022-08-03T21:19:56;4.88;;;1.58;;
38025;SDS011;23836;48.430;9.888;2022-08-03T21:24:46;6.72;;;2.00;;
38025;SDS011;23836;48.430;9.888;2022-08-03T21:29:38;2.65;;;1.35;;
38025;SDS011;23836;48.430;9.888;2022-08-03T21:34:30;3.60;;;1.52;;
38025;SDS011;23836;48.430;9.888;2022-08-03T21:39:21;3.78;;;1.75;;
38025;SDS011;23836;48.430;9.888;2022-08-03T21:44:11;2.20;;;1.50;;
38025;SDS011;23836;48.430;9.888;2022-08-03T21:49:03;5.68;;;1.60;;
38025;SDS011;23836;48.430;9.888;2022-08-03T21:53:55;4.13;;;1.67;;
38025;SDS011;23836;48.430;9.888;2022-08-03T21:58:54;5.95;;;1.27;;
38025;SDS011;23836;48.430;9.888;2022-08-03T22:03:49;5.55;;;1.60;;
38025;SDS011;23836;48.430;9.888;2022-08-03T22:08:42;11.82;;;1.67;;
38025;SDS011;23836;48.430;9.888;2022-08-03T22:13:33;3.50;;;1.50;;
38025;SDS011;23836;48.430;9.888;2022-08-03T22:18:24;5.15;;;1.70;;
38025;SDS011;23836;48.430;9.888;2022-08-03T22:23:14;2.38;;;1.25;;
38025;SDS011;23836;48.430;9.888;2022-08-03T22:28:10;2.60;;;1.67;;
38025;SDS011;23836;48.430;9.888;2022-08-03T22:33:05;4.28;;;1.45;;
38025;SDS011;23836;48.430;9.888;2022-08-03T22:37:57;8.30;;;1.40;;
38025;SDS011;23836;48.430;9.888;2022-08-03T22:42:49;6.15;;;1.65;;
38025;SDS011;23836;48.430;9.888;2022-08-03T22:47:40;5.07;;;1.23;;
38025;SDS011;23836;48.430;9.888;2022-08-03T22:52:31;3.78;;;1.42;;
38025;SDS011;23836;48.430;9.888;2022-08-03T22:57:22;4.50;;;1.67;;
38025;SDS011;23836;48.430;9.888;2022-08-03T23:02:16;6.72;;;1.80;;
38025;SDS011;23836;48.430;9.888;2022-08-03T23:07:09;7.28;;;2.17;;
38025;SDS011;23836;48.430;9.888;2022-08-03T23:12:04;3.88;;;1.60;;
38025;SDS011;23836;48.430;9.888;2022-08-03T23:16:55;8.23;;;2.35;;
38025;SDS011;23836;48.430;9.888;2022-08-03T23:21:48;8.15;;;1.80;;
38025;SDS011;23836;48.430;9.888;2022-08-03T23:26:39;2.50;;;1.55;;
38025;SDS011;23836;48.430;9.888;2022-08-03T23:31:30;1.60;;;1.20;;
38025;SDS011;23836;48.430;9.888;2022-08-03T23:36:21;6.13;;;1.90;;
38025;SDS011;23836;48.430;9.888;2022-08-03T23:41:11;2.47;;;1.58;;
38025;SDS011;23836;48.430;9.888;2022-08-03T23:46:03;8.60;;;1.77;;
38025;SDS011;23836;48.430;9.888;2022-08-03T23:50:58;2.25;;;1.65;;
